Longreach, Queensland

1:55 AM AEST on May 25, 2015 (GMT +1000)
Queensland | | Change Station
CLOSE
Current Station
Personal Weather Station
Location: Longreach, QLD
Elevation: 617 ft
Nearby Weather Stations

Elev 617 ft 23.45 °S, 144.25 °E | Updated 3 seconds ago

Clear
Clear
68.1 °F
Feels Like 68.1 °F
N
5.1
Wind Variable Wind from SE
Gusts 11.8 mph

Today
High -- | Low -- °F
--% Chance of Precip.
Yesterday
High -- | Low -- °F
Precip. -- in
6:53 AM 5:45 PM
Waxing Crescent, 40% visible
Pressure 30.21 in
Visibility 6.2 miles
Clouds
Dew Point 48 °F
Humidity 48%
Rainfall 0.00 in
Snow Depth Not available.
UV Not available.
Pollen Not available.
Air Quality Not available.
Flu Activity Not available.
METAR YLRE 241500Z AUTO 09014KT 9999 // NCD 20/08 Q1023

More Conditions Fewer Conditions

Pressure 30.21 in
Visibility 6.2 miles
Clouds
Dew Point 48 °F
Humidity 48%
Rainfall 0.00 in
Snow Depth Not available.
UV Not available.
Pollen Not available.
Air Quality Not available.
Flu Activity Not available.
METAR YLRE 241500Z AUTO 09014KT 9999 // NCD 20/08 Q1023

More Conditions Fewer Conditions

10-Day Weather Forecast

Almanac

Astronomy

May. 25, 2015 Rise Set
Actual Time
Civil Twilight
Nautical Twilight
Astronomical Twilight
Moon
Length of Visible Light
Length of Day
Tomorrow will be .
, % of the Moon is Illuminated

Today's Extremes

Country Highs Country Lows

Community

WunderPhotos

Upload Photos

1,823,779 photos uploaded!

WunderBlogs® & News

Nearby

Air Quality

  Air Quality AQ Index Pollutant
Not available.

Snow Depth

Station Depth Elevation

Earthquake Activity

City Distance Mag. Time & Date
Minimum magnitude displayed is 2.5.

Coastal Water Temperatures

Place Temperature

Stations

Nearby Weather Stations

Station Location Temp. Windchill Dew Point Humidity Wind Precip. Elev Updated Type